KIAH/IAH METAR and TAF weather

Enter ICAO airport designator
Station Type Date Time Source
KIAH METAR 2019/10/15 03:53 UTC NOAA

KIAH 150353Z 12006KT 10SM OVC005 25/23 A2998 RMK AO2 SLP151 T02500233


Station Type Date Time Source
KIAH Decoded METAR 2019/10/15 03:53 UTC NOAA

HOUSTON INTERCONTINENTAL, TX, United States (KIAH) 30-00N 095-22W 36M
Oct 14, 2019 - 11:53 PM EDT / 2019.10.15 0353 UTC
Wind: from the ESE (120 degrees) at 7 MPH (6 KT):0
Visibility: 10 mile(s):0
Sky conditions: overcast
Temperature: 77.0 F (25.0 C)
Dew Point: 73.9 F (23.3 C)
Relative Humidity: 90%
Pressure (altimeter): 29.98 in. Hg (1015 hPa)
ob: KIAH 150353Z 12006KT 10SM OVC005 25/23 A2998 RMK AO2 SLP151 T02500233
cycle: 4

Station Type Date Time Source
KIAH TAF 2019/10/15 03:06 UTC NOAA

TAF
AMD KIAH 150305Z 1503/1606 12009KT P6SM OVC005
FM150600 16005KT P6SM BKN006 BKN015
FM151500 20007KT P6SM BKN025
FM152000 22007KT P6SM VCSH SCT050 BKN100
FM160400 23005KT P6SM VCTS BKN035CB BKN250

Example: see airport list